sensor_id;sensor_type;location;lat;lon;timestamp;temperature;humidity
67759;SHT31;54562;47.620;18.786;2022-09-01T00:02:50;18.03;74.73
67759;SHT31;54562;47.620;18.786;2022-09-01T00:06:11;17.99;74.97
67759;SHT31;54562;47.620;18.786;2022-09-01T00:09:39;17.94;75.18
67759;SHT31;54562;47.620;18.786;2022-09-01T00:12:54;17.91;75.07
67759;SHT31;54562;47.620;18.786;2022-09-01T00:16:22;17.87;75.33
67759;SHT31;54562;47.620;18.786;2022-09-01T00:19:44;17.85;75.30
67759;SHT31;54562;47.620;18.786;2022-09-01T00:23:06;17.82;75.39
67759;SHT31;54562;47.620;18.786;2022-09-01T00:26:27;17.78;75.76
67759;SHT31;54562;47.620;18.786;2022-09-01T00:29:55;17.77;75.99
67759;SHT31;54562;47.620;18.786;2022-09-01T00:33:18;17.74;76.18
67759;SHT31;54562;47.620;18.786;2022-09-01T00:36:53;17.72;76.31
67759;SHT31;54562;47.620;18.786;2022-09-01T00:40:29;17.67;76.24
67759;SHT31;54562;47.620;18.786;2022-09-01T00:43:45;17.66;76.47
67759;SHT31;54562;47.620;18.786;2022-09-01T00:47:15;17.68;76.68
67759;SHT31;54562;47.620;18.786;2022-09-01T00:50:30;17.64;76.84
67759;SHT31;54562;47.620;18.786;2022-09-01T00:53:58;17.61;77.01
67759;SHT31;54562;47.620;18.786;2022-09-01T00:57:22;17.59;77.01
67759;SHT31;54562;47.620;18.786;2022-09-01T01:00:38;17.55;76.91
67759;SHT31;54562;47.620;18.786;2022-09-01T01:04:08;17.54;77.02
67759;SHT31;54562;47.620;18.786;2022-09-01T01:07:24;17.51;77.22
67759;SHT31;54562;47.620;18.786;2022-09-01T01:10:58;17.48;77.39
67759;SHT31;54562;47.620;18.786;2022-09-01T01:14:15;17.46;77.41
67759;SHT31;54562;47.620;18.786;2022-09-01T01:17:51;17.42;77.52
67759;SHT31;54562;47.620;18.786;2022-09-01T01:21:28;17.37;77.57
67759;SHT31;54562;47.620;18.786;2022-09-01T01:25:30;17.31;77.73
67759;SHT31;54562;47.620;18.786;2022-09-01T01:29:09;17.26;77.92
67759;SHT31;54562;47.620;18.786;2022-09-01T01:32:32;17.22;78.01
67759;SHT31;54562;47.620;18.786;2022-09-01T01:35:56;17.17;78.07
67759;SHT31;54562;47.620;18.786;2022-09-01T01:39:35;17.07;77.88
67759;SHT31;54562;47.620;18.786;2022-09-01T01:43:10;16.92;77.36
67759;SHT31;54562;47.620;18.786;2022-09-01T01:46:39;16.79;77.04
67759;SHT31;54562;47.620;18.786;2022-09-01T01:50:17;16.67;76.87
67759;SHT31;54562;47.620;18.786;2022-09-01T01:53:57;16.59;76.96
67759;SHT31;54562;47.620;18.786;2022-09-01T01:57:33;16.53;77.16
67759;SHT31;54562;47.620;18.786;2022-09-01T02:01:12;16.48;77.14
67759;SHT31;54562;47.620;18.786;2022-09-01T02:04:42;16.43;77.01
67759;SHT31;54562;47.620;18.786;2022-09-01T02:08:18;16.37;77.17
67759;SHT31;54562;47.620;18.786;2022-09-01T02:11:56;16.34;77.47
67759;SHT31;54562;47.620;18.786;2022-09-01T02:15:31;16.31;77.49
67759;SHT31;54562;47.620;18.786;2022-09-01T02:19:06;16.28;77.63
67759;SHT31;54562;47.620;18.786;2022-09-01T02:22:43;16.23;77.67
67759;SHT31;54562;47.620;18.786;2022-09-01T02:26:19;16.20;77.82
67759;SHT31;54562;47.620;18.786;2022-09-01T02:29:54;16.17;77.91
67759;SHT31;54562;47.620;18.786;2022-09-01T02:33:22;16.17;77.90
67759;SHT31;54562;47.620;18.786;2022-09-01T02:36:58;16.16;77.97
67759;SHT31;54562;47.620;18.786;2022-09-01T02:40:33;16.14;77.96
67759;SHT31;54562;47.620;18.786;2022-09-01T02:44:08;16.10;78.06
67759;SHT31;54562;47.620;18.786;2022-09-01T02:47:37;16.07;78.12
67759;SHT31;54562;47.620;18.786;2022-09-01T02:51:01;16.00;77.97
67759;SHT31;54562;47.620;18.786;2022-09-01T02:54:24;15.94;78.04
67759;SHT31;54562;47.620;18.786;2022-09-01T02:57:49;15.89;77.97
67759;SHT31;54562;47.620;18.786;2022-09-01T03:01:12;15.87;78.35
67759;SHT31;54562;47.620;18.786;2022-09-01T03:04:37;15.86;78.38
67759;SHT31;54562;47.620;18.786;2022-09-01T03:08:00;15.84;78.43
67759;SHT31;54562;47.620;18.786;2022-09-01T03:11:38;15.80;78.47
67759;SHT31;54562;47.620;18.786;2022-09-01T03:15:15;15.71;78.47
67759;SHT31;54562;47.620;18.786;2022-09-01T03:18:39;15.65;78.60
67759;SHT31;54562;47.620;18.786;2022-09-01T03:22:14;15.58;78.71
67759;SHT31;54562;47.620;18.786;2022-09-01T03:25:51;15.50;78.84
67759;SHT31;54562;47.620;18.786;2022-09-01T03:29:27;15.43;79.01
67759;SHT31;54562;47.620;18.786;2022-09-01T03:33:04;15.43;78.88
67759;SHT31;54562;47.620;18.786;2022-09-01T03:36:26;15.38;78.59
67759;SHT31;54562;47.620;18.786;2022-09-01T03:39:59;15.32;78.51
67759;SHT31;54562;47.620;18.786;2022-09-01T03:43:23;15.28;78.70
67759;SHT31;54562;47.620;18.786;2022-09-01T03:46:54;15.26;78.96
67759;SHT31;54562;47.620;18.786;2022-09-01T03:50:23;15.21;79.12
67759;SHT31;54562;47.620;18.786;2022-09-01T03:54:00;15.18;79.18
67759;SHT31;54562;47.620;18.786;2022-09-01T03:57:35;15.16;79.29
67759;SHT31;54562;47.620;18.786;2022-09-01T04:01:10;15.15;79.33
67759;SHT31;54562;47.620;18.786;2022-09-01T04:04:32;15.13;79.43
67759;SHT31;54562;47.620;18.786;2022-09-01T04:08:01;15.10;79.50
67759;SHT31;54562;47.620;18.786;2022-09-01T04:11:38;15.05;79.59
67759;SHT31;54562;47.620;18.786;2022-09-01T04:15:14;15.00;79.57
67759;SHT31;54562;47.620;18.786;2022-09-01T04:18:49;14.97;79.57
67759;SHT31;54562;47.620;18.786;2022-09-01T04:22:10;14.93;79.53
67759;SHT31;54562;47.620;18.786;2022-09-01T04:25:31;14.88;79.37
67759;SHT31;54562;47.620;18.786;2022-09-01T04:28:54;14.84;79.46
67759;SHT31;54562;47.620;18.786;2022-09-01T04:32:17;14.76;79.52
67759;SHT31;54562;47.620;18.786;2022-09-01T04:35:39;14.69;79.50
67759;SHT31;54562;47.620;18.786;2022-09-01T04:39:03;14.65;79.59
67759;SHT31;54562;47.620;18.786;2022-09-01T04:42:39;14.59;79.62
67759;SHT31;54562;47.620;18.786;2022-09-01T04:46:14;14.58;79.78
67759;SHT31;54562;47.620;18.786;2022-09-01T04:54:02;14.52;79.78
67759;SHT31;54562;47.620;18.786;2022-09-01T04:57:40;14.50;79.87
67759;SHT31;54562;47.620;18.786;2022-09-01T05:01:17;14.48;79.96
67759;SHT31;54562;47.620;18.786;2022-09-01T05:05:07;14.45;80.07
67759;SHT31;54562;47.620;18.786;2022-09-01T05:08:42;14.44;80.24
67759;SHT31;54562;47.620;18.786;2022-09-01T05:12:18;14.45;80.30
67759;SHT31;54562;47.620;18.786;2022-09-01T05:16:00;14.47;80.33
67759;SHT31;54562;47.620;18.786;2022-09-01T05:19:42;14.47;80.30
67759;SHT31;54562;47.620;18.786;2022-09-01T05:23:05;14.46;80.41
67759;SHT31;54562;47.620;18.786;2022-09-01T05:26:30;14.49;80.53
67759;SHT31;54562;47.620;18.786;2022-09-01T05:29:56;14.52;80.49
67759;SHT31;54562;47.620;18.786;2022-09-01T05:33:17;14.55;80.43
67759;SHT31;54562;47.620;18.786;2022-09-01T05:36:42;14.58;80.21
67759;SHT31;54562;47.620;18.786;2022-09-01T05:40:06;14.63;80.15
67759;SHT31;54562;47.620;18.786;2022-09-01T05:43:39;14.71;80.35
67759;SHT31;54562;47.620;18.786;2022-09-01T05:47:15;14.77;80.40
67759;SHT31;54562;47.620;18.786;2022-09-01T05:50:50;14.82;80.43
67759;SHT31;54562;47.620;18.786;2022-09-01T05:54:43;14.86;80.43
67759;SHT31;54562;47.620;18.786;2022-09-01T05:58:18;14.88;80.11
67759;SHT31;54562;47.620;18.786;2022-09-01T06:02:14;14.90;80.07
67759;SHT31;54562;47.620;18.786;2022-09-01T06:05:50;14.88;80.10
67759;SHT31;54562;47.620;18.786;2022-09-01T06:09:18;14.89;80.33
67759;SHT31;54562;47.620;18.786;2022-09-01T06:12:39;14.89;80.43
67759;SHT31;54562;47.620;18.786;2022-09-01T06:16:10;14.91;80.53
67759;SHT31;54562;47.620;18.786;2022-09-01T06:19:46;14.93;80.66
67759;SHT31;54562;47.620;18.786;2022-09-01T06:23:08;14.97;80.65
67759;SHT31;54562;47.620;18.786;2022-09-01T06:26:31;15.02;80.54
67759;SHT31;54562;47.620;18.786;2022-09-01T06:30:03;15.06;80.61
67759;SHT31;54562;47.620;18.786;2022-09-01T06:33:43;15.09;80.47
67759;SHT31;54562;47.620;18.786;2022-09-01T06:37:13;15.12;80.46
67759;SHT31;54562;47.620;18.786;2022-09-01T06:40:48;15.17;80.42
67759;SHT31;54562;47.620;18.786;2022-09-01T06:44:35;15.20;80.32
67759;SHT31;54562;47.620;18.786;2022-09-01T06:48:10;15.24;80.15
67759;SHT31;54562;47.620;18.786;2022-09-01T06:51:26;15.26;80.27
67759;SHT31;54562;47.620;18.786;2022-09-01T06:55:00;15.32;80.35
67759;SHT31;54562;47.620;18.786;2022-09-01T06:58:38;15.38;80.37
67759;SHT31;54562;47.620;18.786;2022-09-01T07:02:15;15.41;80.39
67759;SHT31;54562;47.620;18.786;2022-09-01T07:05:50;15.44;80.10
67759;SHT31;54562;47.620;18.786;2022-09-01T07:09:12;15.49;80.10
67759;SHT31;54562;47.620;18.786;2022-09-01T07:12:58;15.55;80.13
67759;SHT31;54562;47.620;18.786;2022-09-01T07:16:16;15.59;80.03
67759;SHT31;54562;47.620;18.786;2022-09-01T07:20:01;15.63;80.26
67759;SHT31;54562;47.620;18.786;2022-09-01T07:23:36;15.67;80.73
67759;SHT31;54562;47.620;18.786;2022-09-01T07:27:17;15.75;81.08
67759;SHT31;54562;47.620;18.786;2022-09-01T07:30:49;15.88;81.23
67759;SHT31;54562;47.620;18.786;2022-09-01T07:34:33;15.97;81.44
67759;SHT31;54562;47.620;18.786;2022-09-01T07:37:55;16.05;81.61
67759;SHT31;54562;47.620;18.786;2022-09-01T07:41:38;16.13;81.49
67759;SHT31;54562;47.620;18.786;2022-09-01T07:45:21;16.22;81.38
67759;SHT31;54562;47.620;18.786;2022-09-01T07:48:44;16.30;81.35
67759;SHT31;54562;47.620;18.786;2022-09-01T07:52:26;16.42;81.28
67759;SHT31;54562;47.620;18.786;2022-09-01T07:55:47;16.53;81.55
67759;SHT31;54562;47.620;18.786;2022-09-01T07:59:10;16.61;81.27
67759;SHT31;54562;47.620;18.786;2022-09-01T08:02:31;16.70;81.52
67759;SHT31;54562;47.620;18.786;2022-09-01T08:05:55;16.79;81.32
67759;SHT31;54562;47.620;18.786;2022-09-01T08:09:22;16.86;81.08
67759;SHT31;54562;47.620;18.786;2022-09-01T08:12:52;16.89;80.78
67759;SHT31;54562;47.620;18.786;2022-09-01T08:16:22;16.96;80.68
67759;SHT31;54562;47.620;18.786;2022-09-01T08:20:08;17.02;80.30
67759;SHT31;54562;47.620;18.786;2022-09-01T08:23:30;17.08;80.06
67759;SHT31;54562;47.620;18.786;2022-09-01T08:26:54;17.12;79.50
67759;SHT31;54562;47.620;18.786;2022-09-01T08:30:15;17.15;79.15
67759;SHT31;54562;47.620;18.786;2022-09-01T08:33:38;17.20;78.94
67759;SHT31;54562;47.620;18.786;2022-09-01T08:37:02;17.23;78.96
67759;SHT31;54562;47.620;18.786;2022-09-01T08:40:38;17.29;79.08
67759;SHT31;54562;47.620;18.786;2022-09-01T08:44:26;17.36;78.76
67759;SHT31;54562;47.620;18.786;2022-09-01T08:48:11;17.45;78.60
67759;SHT31;54562;47.620;18.786;2022-09-01T08:52:15;17.58;78.65
67759;SHT31;54562;47.620;18.786;2022-09-01T08:55:44;17.70;78.63
67759;SHT31;54562;47.620;18.786;2022-09-01T08:59:18;17.86;78.62
67759;SHT31;54562;47.620;18.786;2022-09-01T09:02:58;17.97;78.28
67759;SHT31;54562;47.620;18.786;2022-09-01T09:06:57;18.09;77.85
67759;SHT31;54562;47.620;18.786;2022-09-01T09:10:45;18.31;78.35
67759;SHT31;54562;47.620;18.786;2022-09-01T09:14:36;18.51;77.01
67759;SHT31;54562;47.620;18.786;2022-09-01T09:18:28;18.71;76.07
67759;SHT31;54562;47.620;18.786;2022-09-01T09:22:12;18.87;75.21
67759;SHT31;54562;47.620;18.786;2022-09-01T09:25:42;19.03;74.83
67759;SHT31;54562;47.620;18.786;2022-09-01T09:29:17;19.19;74.58
67759;SHT31;54562;47.620;18.786;2022-09-01T09:32:54;19.43;74.13
67759;SHT31;54562;47.620;18.786;2022-09-01T09:36:55;19.70;72.13
67759;SHT31;54562;47.620;18.786;2022-09-01T09:40:56;19.92;71.86
67759;SHT31;54562;47.620;18.786;2022-09-01T09:44:42;20.13;70.60
67759;SHT31;54562;47.620;18.786;2022-09-01T09:48:27;20.30;70.03
67759;SHT31;54562;47.620;18.786;2022-09-01T09:52:14;20.43;69.26
67759;SHT31;54562;47.620;18.786;2022-09-01T09:59:55;20.90;67.72
67759;SHT31;54562;47.620;18.786;2022-09-01T10:03:20;21.13;67.67
67759;SHT31;54562;47.620;18.786;2022-09-01T10:07:25;21.33;66.03
67759;SHT31;54562;47.620;18.786;2022-09-01T10:11:04;21.55;65.28
67759;SHT31;54562;47.620;18.786;2022-09-01T10:14:22;21.69;64.37
67759;SHT31;54562;47.620;18.786;2022-09-01T10:18:03;21.83;63.17
67759;SHT31;54562;47.620;18.786;2022-09-01T10:21:51;22.01;62.89
67759;SHT31;54562;47.620;18.786;2022-09-01T10:25:30;22.14;61.88
67759;SHT31;54562;47.620;18.786;2022-09-01T10:28:55;22.31;61.13
67759;SHT31;54562;47.620;18.786;2022-09-01T10:32:30;22.49;61.21
67759;SHT31;54562;47.620;18.786;2022-09-01T10:36:00;22.66;60.02
67759;SHT31;54562;47.620;18.786;2022-09-01T10:39:33;22.83;58.83
67759;SHT31;54562;47.620;18.786;2022-09-01T10:43:57;23.01;57.44
67759;SHT31;54562;47.620;18.786;2022-09-01T10:47:40;23.13;56.68
67759;SHT31;54562;47.620;18.786;2022-09-01T10:54:59;23.47;55.14
67759;SHT31;54562;47.620;18.786;2022-09-01T10:58:44;23.61;54.52
67759;SHT31;54562;47.620;18.786;2022-09-01T11:02:34;23.73;54.61
67759;SHT31;54562;47.620;18.786;2022-09-01T11:10:22;23.97;54.75
67759;SHT31;54562;47.620;18.786;2022-09-01T11:14:22;24.07;53.43
67759;SHT31;54562;47.620;18.786;2022-09-01T11:17:58;24.22;52.86
67759;SHT31;54562;47.620;18.786;2022-09-01T11:21:38;24.35;51.63
67759;SHT31;54562;47.620;18.786;2022-09-01T11:33:16;24.77;49.70
67759;SHT31;54562;47.620;18.786;2022-09-01T11:37:13;24.98;49.22
67759;SHT31;54562;47.620;18.786;2022-09-01T11:40:52;25.24;49.31
67759;SHT31;54562;47.620;18.786;2022-09-01T11:44:23;25.39;48.54
67759;SHT31;54562;47.620;18.786;2022-09-01T11:47:44;25.47;49.18
67759;SHT31;54562;47.620;18.786;2022-09-01T11:51:02;25.48;47.94
67759;SHT31;54562;47.620;18.786;2022-09-01T11:54:24;25.43;48.00
67759;SHT31;54562;47.620;18.786;2022-09-01T11:57:54;25.40;48.01
67759;SHT31;54562;47.620;18.786;2022-09-01T12:01:29;25.47;48.53
67759;SHT31;54562;47.620;18.786;2022-09-01T12:04:47;25.38;47.75
67759;SHT31;54562;47.620;18.786;2022-09-01T12:08:17;25.40;47.84
67759;SHT31;54562;47.620;18.786;2022-09-01T12:11:52;25.43;47.07
67759;SHT31;54562;47.620;18.786;2022-09-01T12:15:13;25.50;47.09
67759;SHT31;54562;47.620;18.786;2022-09-01T12:18:45;25.64;46.75
67759;SHT31;54562;47.620;18.786;2022-09-01T12:22:13;25.72;48.14
67759;SHT31;54562;47.620;18.786;2022-09-01T12:25:35;25.67;48.33
67759;SHT31;54562;47.620;18.786;2022-09-01T12:28:57;25.70;47.07
67759;SHT31;54562;47.620;18.786;2022-09-01T12:32:12;25.56;47.67
67759;SHT31;54562;47.620;18.786;2022-09-01T12:35:40;25.25;47.76
67759;SHT31;54562;47.620;18.786;2022-09-01T12:42:54;25.49;50.04
67759;SHT31;54562;47.620;18.786;2022-09-01T12:46:11;25.66;49.06
67759;SHT31;54562;47.620;18.786;2022-09-01T12:50:02;25.72;49.03
67759;SHT31;54562;47.620;18.786;2022-09-01T12:53:53;25.71;49.41
67759;SHT31;54562;47.620;18.786;2022-09-01T12:57:11;25.79;49.73
67759;SHT31;54562;47.620;18.786;2022-09-01T13:00:56;25.99;50.13
67759;SHT31;54562;47.620;18.786;2022-09-01T13:04:26;26.07;50.18
67759;SHT31;54562;47.620;18.786;2022-09-01T13:08:04;25.94;49.92
67759;SHT31;54562;47.620;18.786;2022-09-01T13:11:41;25.60;48.35
67759;SHT31;54562;47.620;18.786;2022-09-01T13:15:24;25.40;48.83
67759;SHT31;54562;47.620;18.786;2022-09-01T13:18:39;25.30;49.25
67759;SHT31;54562;47.620;18.786;2022-09-01T13:22:27;24.94;49.87
67759;SHT31;54562;47.620;18.786;2022-09-01T13:25:43;24.70;50.70
67759;SHT31;54562;47.620;18.786;2022-09-01T13:29:11;24.83;51.34
67759;SHT31;54562;47.620;18.786;2022-09-01T13:32:26;24.97;50.19
67759;SHT31;54562;47.620;18.786;2022-09-01T13:36:07;25.15;49.00
67759;SHT31;54562;47.620;18.786;2022-09-01T13:39:48;24.99;49.33
67759;SHT31;54562;47.620;18.786;2022-09-01T13:43:25;24.96;48.61
67759;SHT31;54562;47.620;18.786;2022-09-01T13:47:05;24.92;48.34
67759;SHT31;54562;47.620;18.786;2022-09-01T13:50:40;24.96;49.33
67759;SHT31;54562;47.620;18.786;2022-09-01T13:54:26;24.97;48.91
67759;SHT31;54562;47.620;18.786;2022-09-01T13:57:55;24.80;50.38
67759;SHT31;54562;47.620;18.786;2022-09-01T14:01:17;24.47;50.92
67759;SHT31;54562;47.620;18.786;2022-09-01T14:04:32;24.18;51.94
67759;SHT31;54562;47.620;18.786;2022-09-01T14:08:07;23.94;52.37
67759;SHT31;54562;47.620;18.786;2022-09-01T14:11:45;23.78;52.90
67759;SHT31;54562;47.620;18.786;2022-09-01T14:15:02;23.69;52.82
67759;SHT31;54562;47.620;18.786;2022-09-01T14:18:42;23.58;53.06
67759;SHT31;54562;47.620;18.786;2022-09-01T14:21:56;23.50;52.49
67759;SHT31;54562;47.620;18.786;2022-09-01T14:25:21;23.45;53.20
67759;SHT31;54562;47.620;18.786;2022-09-01T14:28:57;23.54;53.42
67759;SHT31;54562;47.620;18.786;2022-09-01T14:32:32;23.55;52.92
67759;SHT31;54562;47.620;18.786;2022-09-01T14:35:48;23.55;53.42
67759;SHT31;54562;47.620;18.786;2022-09-01T14:39:30;23.58;54.17
67759;SHT31;54562;47.620;18.786;2022-09-01T14:43:05;23.62;53.47
67759;SHT31;54562;47.620;18.786;2022-09-01T14:46:45;23.55;53.23
67759;SHT31;54562;47.620;18.786;2022-09-01T14:50:02;23.48;53.14
67759;SHT31;54562;47.620;18.786;2022-09-01T14:53:38;23.42;53.70
67759;SHT31;54562;47.620;18.786;2022-09-01T14:56:55;23.36;53.47
67759;SHT31;54562;47.620;18.786;2022-09-01T15:00:50;23.28;53.87
67759;SHT31;54562;47.620;18.786;2022-09-01T15:04:46;23.21;53.63
67759;SHT31;54562;47.620;18.786;2022-09-01T15:08:00;23.15;54.17
67759;SHT31;54562;47.620;18.786;2022-09-01T15:11:28;23.08;53.94
67759;SHT31;54562;47.620;18.786;2022-09-01T15:14:54;23.02;54.02
67759;SHT31;54562;47.620;18.786;2022-09-01T15:18:16;22.98;54.29
67759;SHT31;54562;47.620;18.786;2022-09-01T15:21:30;22.97;54.48
67759;SHT31;54562;47.620;18.786;2022-09-01T15:24:45;22.91;53.81
67759;SHT31;54562;47.620;18.786;2022-09-01T15:28:13;22.85;53.67
67759;SHT31;54562;47.620;18.786;2022-09-01T15:31:29;22.82;54.25
67759;SHT31;54562;47.620;18.786;2022-09-01T15:34:57;22.84;55.10
67759;SHT31;54562;47.620;18.786;2022-09-01T15:38:18;22.83;54.77
67759;SHT31;54562;47.620;18.786;2022-09-01T15:41:55;22.79;54.72
67759;SHT31;54562;47.620;18.786;2022-09-01T15:45:13;22.74;55.31
67759;SHT31;54562;47.620;18.786;2022-09-01T15:48:45;22.68;55.42
67759;SHT31;54562;47.620;18.786;2022-09-01T15:52:00;22.63;55.90
67759;SHT31;54562;47.620;18.786;2022-09-01T15:55:16;22.58;55.81
67759;SHT31;54562;47.620;18.786;2022-09-01T15:58:46;22.44;55.74
67759;SHT31;54562;47.620;18.786;2022-09-01T16:02:10;22.36;56.38
67759;SHT31;54562;47.620;18.786;2022-09-01T16:05:41;22.27;56.33
67759;SHT31;54562;47.620;18.786;2022-09-01T16:09:09;22.19;56.50
67759;SHT31;54562;47.620;18.786;2022-09-01T16:12:45;22.11;56.43
67759;SHT31;54562;47.620;18.786;2022-09-01T16:16:24;22.01;56.67
67759;SHT31;54562;47.620;18.786;2022-09-01T16:20:12;21.94;56.91
67759;SHT31;54562;47.620;18.786;2022-09-01T16:23:33;21.89;57.16
67759;SHT31;54562;47.620;18.786;2022-09-01T16:27:15;21.85;57.60
67759;SHT31;54562;47.620;18.786;2022-09-01T16:30:39;21.80;57.73
67759;SHT31;54562;47.620;18.786;2022-09-01T16:34:07;21.75;58.17
67759;SHT31;54562;47.620;18.786;2022-09-01T16:37:45;21.67;58.46
67759;SHT31;54562;47.620;18.786;2022-09-01T16:41:32;21.57;58.40
67759;SHT31;54562;47.620;18.786;2022-09-01T16:45:03;21.51;58.87
67759;SHT31;54562;47.620;18.786;2022-09-01T16:48:42;21.43;59.03
67759;SHT31;54562;47.620;18.786;2022-09-01T16:52:14;21.31;60.03
67759;SHT31;54562;47.620;18.786;2022-09-01T16:55:49;21.19;60.47
67759;SHT31;54562;47.620;18.786;2022-09-01T17:02:50;21.01;61.57
67759;SHT31;54562;47.620;18.786;2022-09-01T17:06:46;20.92;62.13
67759;SHT31;54562;47.620;18.786;2022-09-01T17:10:34;20.80;62.12
67759;SHT31;54562;47.620;18.786;2022-09-01T17:14:21;20.68;61.82
67759;SHT31;54562;47.620;18.786;2022-09-01T17:18:02;20.56;62.50
67759;SHT31;54562;47.620;18.786;2022-09-01T17:21:29;20.45;62.63
67759;SHT31;54562;47.620;18.786;2022-09-01T17:24:44;20.35;62.67
67759;SHT31;54562;47.620;18.786;2022-09-01T17:27:58;20.29;62.95
67759;SHT31;54562;47.620;18.786;2022-09-01T17:31:13;20.24;62.84
67759;SHT31;54562;47.620;18.786;2022-09-01T17:34:45;20.17;62.76
67759;SHT31;54562;47.620;18.786;2022-09-01T17:38:08;20.12;62.76
67759;SHT31;54562;47.620;18.786;2022-09-01T17:41:32;20.06;62.96
67759;SHT31;54562;47.620;18.786;2022-09-01T17:44:46;20.01;63.27
67759;SHT31;54562;47.620;18.786;2022-09-01T17:48:01;19.97;63.21
67759;SHT31;54562;47.620;18.786;2022-09-01T17:51:18;19.92;63.57
67759;SHT31;54562;47.620;18.786;2022-09-01T17:54:40;19.87;63.72
67759;SHT31;54562;47.620;18.786;2022-09-01T17:57:55;19.80;64.35
67759;SHT31;54562;47.620;18.786;2022-09-01T18:01:12;19.74;64.58
67759;SHT31;54562;47.620;18.786;2022-09-01T18:08:02;19.56;66.56
67759;SHT31;54562;47.620;18.786;2022-09-01T18:11:34;19.45;66.22
67759;SHT31;54562;47.620;18.786;2022-09-01T18:14:52;19.33;66.32
67759;SHT31;54562;47.620;18.786;2022-09-01T18:18:15;19.28;66.73
67759;SHT31;54562;47.620;18.786;2022-09-01T18:21:39;19.24;66.39
67759;SHT31;54562;47.620;18.786;2022-09-01T18:24:57;19.20;65.92
67759;SHT31;54562;47.620;18.786;2022-09-01T18:28:09;19.16;65.75
67759;SHT31;54562;47.620;18.786;2022-09-01T18:31:25;19.12;65.77
67759;SHT31;54562;47.620;18.786;2022-09-01T18:35:04;19.10;65.65
67759;SHT31;54562;47.620;18.786;2022-09-01T18:38:30;19.06;65.53
67759;SHT31;54562;47.620;18.786;2022-09-01T18:41:55;19.02;65.63
67759;SHT31;54562;47.620;18.786;2022-09-01T18:45:20;18.97;65.83
67759;SHT31;54562;47.620;18.786;2022-09-01T18:48:50;18.94;65.90
67759;SHT31;54562;47.620;18.786;2022-09-01T18:52:07;19.02;65.85
67759;SHT31;54562;47.620;18.786;2022-09-01T18:55:37;19.13;65.82
67759;SHT31;54562;47.620;18.786;2022-09-01T18:59:03;19.12;66.05
67759;SHT31;54562;47.620;18.786;2022-09-01T19:02:29;19.11;66.06
67759;SHT31;54562;47.620;18.786;2022-09-01T19:09:41;19.07;66.19
67759;SHT31;54562;47.620;18.786;2022-09-01T19:13:01;19.03;66.48
67759;SHT31;54562;47.620;18.786;2022-09-01T19:16:23;18.99;66.49
67759;SHT31;54562;47.620;18.786;2022-09-01T19:19:47;18.97;67.13
67759;SHT31;54562;47.620;18.786;2022-09-01T19:23:03;18.98;67.31
67759;SHT31;54562;47.620;18.786;2022-09-01T19:26:21;18.98;66.94
67759;SHT31;54562;47.620;18.786;2022-09-01T19:29:35;18.99;66.90
67759;SHT31;54562;47.620;18.786;2022-09-01T19:32:54;18.99;67.10
67759;SHT31;54562;47.620;18.786;2022-09-01T19:36:07;18.99;67.06
67759;SHT31;54562;47.620;18.786;2022-09-01T19:39:23;18.98;66.84
67759;SHT31;54562;47.620;18.786;2022-09-01T19:42:37;18.98;66.98
67759;SHT31;54562;47.620;18.786;2022-09-01T19:45:53;18.97;67.25
67759;SHT31;54562;47.620;18.786;2022-09-01T19:49:19;18.97;67.25
67759;SHT31;54562;47.620;18.786;2022-09-01T19:52:41;18.96;67.08
67759;SHT31;54562;47.620;18.786;2022-09-01T19:56:01;18.93;66.95
67759;SHT31;54562;47.620;18.786;2022-09-01T19:59:18;18.92;66.97
67759;SHT31;54562;47.620;18.786;2022-09-01T20:02:35;18.90;67.06
67759;SHT31;54562;47.620;18.786;2022-09-01T20:05:50;18.89;66.67
67759;SHT31;54562;47.620;18.786;2022-09-01T20:09:06;18.87;66.84
67759;SHT31;54562;47.620;18.786;2022-09-01T20:12:23;18.86;66.90
67759;SHT31;54562;47.620;18.786;2022-09-01T20:15:42;18.84;67.09
67759;SHT31;54562;47.620;18.786;2022-09-01T20:19:00;18.82;67.14
67759;SHT31;54562;47.620;18.786;2022-09-01T20:22:22;18.83;67.13
67759;SHT31;54562;47.620;18.786;2022-09-01T20:25:44;18.80;67.05
67759;SHT31;54562;47.620;18.786;2022-09-01T20:28:58;18.79;67.21
67759;SHT31;54562;47.620;18.786;2022-09-01T20:32:17;18.80;65.93
67759;SHT31;54562;47.620;18.786;2022-09-01T20:35:35;18.79;64.16
67759;SHT31;54562;47.620;18.786;2022-09-01T20:38:52;18.77;62.19
67759;SHT31;54562;47.620;18.786;2022-09-01T20:42:24;18.75;62.08
67759;SHT31;54562;47.620;18.786;2022-09-01T20:45:40;18.72;61.35
67759;SHT31;54562;47.620;18.786;2022-09-01T20:48:49;18.69;60.81
67759;SHT31;54562;47.620;18.786;2022-09-01T20:51:59;18.67;60.45
67759;SHT31;54562;47.620;18.786;2022-09-01T20:55:15;18.65;60.11
67759;SHT31;54562;47.620;18.786;2022-09-01T20:58:32;18.64;59.67
67759;SHT31;54562;47.620;18.786;2022-09-01T21:01:51;18.60;58.87
67759;SHT31;54562;47.620;18.786;2022-09-01T21:05:14;18.59;57.99
67759;SHT31;54562;47.620;18.786;2022-09-01T21:08:45;18.56;57.36
67759;SHT31;54562;47.620;18.786;2022-09-01T21:12:02;18.54;57.46
67759;SHT31;54562;47.620;18.786;2022-09-01T21:15:24;18.50;56.99
67759;SHT31;54562;47.620;18.786;2022-09-01T21:18:46;18.45;57.12
67759;SHT31;54562;47.620;18.786;2022-09-01T21:22:09;18.40;57.36
67759;SHT31;54562;47.620;18.786;2022-09-01T21:25:24;18.36;57.22
67759;SHT31;54562;47.620;18.786;2022-09-01T21:28:33;18.31;57.03
67759;SHT31;54562;47.620;18.786;2022-09-01T21:31:41;18.27;56.99
67759;SHT31;54562;47.620;18.786;2022-09-01T21:34:50;18.23;57.16
67759;SHT31;54562;47.620;18.786;2022-09-01T21:37:59;18.16;57.15
67759;SHT31;54562;47.620;18.786;2022-09-01T21:41:07;18.10;57.00
67759;SHT31;54562;47.620;18.786;2022-09-01T21:44:16;18.04;56.93
67759;SHT31;54562;47.620;18.786;2022-09-01T21:47:26;17.98;57.37
67759;SHT31;54562;47.620;18.786;2022-09-01T21:50:35;17.93;57.11
67759;SHT31;54562;47.620;18.786;2022-09-01T21:53:44;17.88;56.54
67759;SHT31;54562;47.620;18.786;2022-09-01T21:56:52;17.83;56.17
67759;SHT31;54562;47.620;18.786;2022-09-01T22:00:00;17.78;55.72
67759;SHT31;54562;47.620;18.786;2022-09-01T22:03:12;17.75;55.51
67759;SHT31;54562;47.620;18.786;2022-09-01T22:06:22;17.70;55.55
67759;SHT31;54562;47.620;18.786;2022-09-01T22:09:33;17.64;55.33
67759;SHT31;54562;47.620;18.786;2022-09-01T22:12:40;17.58;55.35
67759;SHT31;54562;47.620;18.786;2022-09-01T22:15:51;17.53;55.52
67759;SHT31;54562;47.620;18.786;2022-09-01T22:19:00;17.50;55.24